createdAt,value
2024-05-09T00:00:35.806Z,99.90
2024-05-09T00:03:12.512Z,99.90
2024-05-09T00:05:43.577Z,99.90
2024-05-09T00:08:14.057Z,99.90
2024-05-09T00:10:44.027Z,99.90
2024-05-09T00:13:13.725Z,99.90
2024-05-09T00:15:43.393Z,99.90
2024-05-09T00:18:15.916Z,99.90
2024-05-09T00:20:45.787Z,99.90
2024-05-09T00:23:15.701Z,99.90
2024-05-09T00:25:46.100Z,99.90
2024-05-09T00:28:16.193Z,99.90
2024-05-09T00:30:45.991Z,99.90
2024-05-09T00:33:18.485Z,99.90
2024-05-09T00:35:48.265Z,99.90
2024-05-09T00:38:17.958Z,99.90
2024-05-09T00:40:47.743Z,99.90
2024-05-09T00:43:17.889Z,99.90
2024-05-09T00:45:48.611Z,99.90
2024-05-09T00:48:21.677Z,99.90
2024-05-09T00:50:54.042Z,99.90
2024-05-09T00:53:23.896Z,99.90
2024-05-09T00:55:56.622Z,99.90
2024-05-09T00:58:28.888Z,99.90
2024-05-09T01:01:00.255Z,99.90
2024-05-09T01:03:32.783Z,99.90
2024-05-09T01:06:02.689Z,99.90
2024-05-09T01:08:32.516Z,99.90
2024-05-09T01:11:02.373Z,99.90
2024-05-09T01:13:32.212Z,99.90
2024-05-09T01:16:01.955Z,99.90
2024-05-09T01:18:34.361Z,99.90
2024-05-09T01:21:04.370Z,99.90
2024-05-09T01:23:37.080Z,99.90
2024-05-09T01:26:07.068Z,99.90
2024-05-09T01:28:36.764Z,99.90
2024-05-09T01:31:06.830Z,99.90
2024-05-09T01:33:36.618Z,99.90
2024-05-09T01:36:06.805Z,99.90
2024-05-09T01:38:39.070Z,99.90
2024-05-09T01:41:08.989Z,99.90
2024-05-09T01:43:38.634Z,99.90
2024-05-09T01:46:08.281Z,99.90
2024-05-09T01:48:38.006Z,99.90
2024-05-09T01:51:08.166Z,99.90
2024-05-09T01:53:40.879Z,99.90
2024-05-09T01:56:11.969Z,99.90
2024-05-09T01:58:41.624Z,99.90
2024-05-09T02:01:11.392Z,99.90
2024-05-09T02:03:41.258Z,99.90
2024-05-09T02:06:11.267Z,99.90
2024-05-09T02:08:43.882Z,99.90
2024-05-09T02:11:13.680Z,99.90
2024-05-09T02:13:44.222Z,99.90
2024-05-09T02:16:14.894Z,99.90
2024-05-09T02:18:44.649Z,99.90
2024-05-09T02:21:14.804Z,99.90
2024-05-09T02:23:47.084Z,99.90
2024-05-09T02:26:16.798Z,99.90
2024-05-09T02:28:46.560Z,99.90
2024-05-09T02:31:16.240Z,99.90
2024-05-09T02:33:46.896Z,99.90
2024-05-09T02:36:14.114Z,99.90
2024-05-09T02:38:46.356Z,99.90
2024-05-09T02:41:13.546Z,99.90
2024-05-09T02:43:43.238Z,99.90
2024-05-09T02:46:10.356Z,99.90
2024-05-09T02:48:40.141Z,99.90
2024-05-09T02:51:07.391Z,99.90
2024-05-09T02:53:37.339Z,99.90
2024-05-09T02:56:07.748Z,99.90
2024-05-09T02:58:37.394Z,99.90
2024-05-09T03:01:04.830Z,99.90
2024-05-09T03:03:34.721Z,99.90
2024-05-09T03:06:02.509Z,99.90
2024-05-09T03:08:32.420Z,99.90
2024-05-09T03:10:59.634Z,99.90
2024-05-09T03:13:31.922Z,99.90
2024-05-09T03:15:59.999Z,99.90
2024-05-09T03:18:30.441Z,99.90
2024-05-09T03:20:57.590Z,99.90
2024-05-09T03:23:27.364Z,99.90
2024-05-09T03:25:54.550Z,99.90
2024-05-09T03:28:24.240Z,99.90
2024-05-09T03:30:53.872Z,99.90
2024-05-09T03:33:23.945Z,99.90
2024-05-09T03:35:51.213Z,99.90
2024-05-09T03:38:20.950Z,99.90
2024-05-09T03:40:52.041Z,99.90
2024-05-09T03:43:20.102Z,99.90
2024-05-09T03:45:51.137Z,99.90
2024-05-09T03:48:21.131Z,99.90
2024-05-09T03:50:51.045Z,99.90
2024-05-09T03:53:18.519Z,99.90
2024-05-09T03:55:48.312Z,99.90
2024-05-09T03:58:15.438Z,99.90
2024-05-09T04:00:45.123Z,99.90
2024-05-09T04:03:13.277Z,99.90
2024-05-09T04:05:46.113Z,99.90
2024-05-09T04:08:14.116Z,99.90
2024-05-09T04:10:44.118Z,99.90
2024-05-09T04:13:11.463Z,99.90
2024-05-09T04:15:41.147Z,99.90
2024-05-09T04:18:08.472Z,99.90
2024-05-09T04:20:40.575Z,99.90
2024-05-09T04:23:12.430Z,99.90
2024-05-09T04:25:45.434Z,99.90
2024-05-09T04:28:13.181Z,99.90
2024-05-09T04:30:43.360Z,99.90
2024-05-09T04:33:12.756Z,99.90
2024-05-09T04:35:44.881Z,99.90
2024-05-09T04:38:15.582Z,99.90
2024-05-09T04:40:46.026Z,99.90
2024-05-09T04:43:18.543Z,99.90
2024-05-09T04:45:48.275Z,99.90
2024-05-09T04:48:16.511Z,99.90
2024-05-09T04:50:46.617Z,99.90
2024-05-09T04:53:18.156Z,99.90
2024-05-09T04:55:48.022Z,99.90
2024-05-09T04:58:15.156Z,99.90
2024-05-09T05:00:44.806Z,99.90
2024-05-09T05:03:14.624Z,99.90
2024-05-09T05:05:46.734Z,99.90
2024-05-09T05:08:15.309Z,99.90
2024-05-09T05:10:48.999Z,99.90
2024-05-09T05:13:20.015Z,99.90
2024-05-09T05:15:52.500Z,99.90
2024-05-09T05:18:19.848Z,99.90
2024-05-09T05:20:50.354Z,99.90
2024-05-09T05:23:19.554Z,99.90
2024-05-09T05:25:53.208Z,99.90
2024-05-09T05:28:23.711Z,99.90
2024-05-09T05:30:50.855Z,99.90
2024-05-09T05:33:22.332Z,99.90
2024-05-09T05:35:49.948Z,99.90
2024-05-09T05:38:23.720Z,99.90
2024-05-09T05:40:55.966Z,99.90
2024-05-09T05:43:25.765Z,99.90
2024-05-09T05:45:52.855Z,99.90
2024-05-09T05:48:22.662Z,99.90
2024-05-09T05:50:49.886Z,99.90
2024-05-09T05:53:19.685Z,99.90
2024-05-09T05:55:46.837Z,99.90
2024-05-09T05:58:20.369Z,99.90
2024-05-09T06:00:48.195Z,99.90
2024-05-09T06:03:18.022Z,99.90
2024-05-09T06:05:46.588Z,99.90
2024-05-09T06:08:16.645Z,99.90
2024-05-09T06:10:43.889Z,99.90
2024-05-09T06:13:15.605Z,99.90
2024-05-09T06:15:45.319Z,99.90
2024-05-09T06:18:16.461Z,99.90
2024-05-09T06:20:44.390Z,99.90
2024-05-09T06:23:14.924Z,99.90
2024-05-09T06:25:42.787Z,99.90
2024-05-09T06:28:12.671Z,99.90
2024-05-09T06:30:42.246Z,99.90
2024-05-09T06:33:16.673Z,99.90
2024-05-09T06:35:44.614Z,99.90
2024-05-09T06:38:14.655Z,99.90
2024-05-09T06:40:43.695Z,99.90
2024-05-09T06:43:16.312Z,99.90
2024-05-09T06:45:46.767Z,99.90
2024-05-09T06:48:21.637Z,99.90
2024-05-09T06:50:49.878Z,99.90
2024-05-09T06:53:22.752Z,99.90
2024-05-09T06:55:50.194Z,99.90
2024-05-09T06:58:20.020Z,99.90
2024-05-09T07:00:47.221Z,99.90
2024-05-09T07:03:20.332Z,99.90
2024-05-09T07:05:49.089Z,99.90
2024-05-09T07:08:19.735Z,99.90
2024-05-09T07:10:47.144Z,99.90
2024-05-09T07:13:17.768Z,99.90
2024-05-09T07:15:45.020Z,99.90
2024-05-09T07:18:17.285Z,99.90
2024-05-09T07:20:49.880Z,99.90
2024-05-09T07:23:20.751Z,99.90
2024-05-09T07:25:47.997Z,99.90
2024-05-09T07:28:19.571Z,99.90
2024-05-09T07:30:47.224Z,99.90
2024-05-09T07:33:22.089Z,99.90
2024-05-09T07:35:53.324Z,99.90
2024-05-09T07:38:23.162Z,99.90
2024-05-09T07:40:50.467Z,99.90
2024-05-09T07:43:20.248Z,99.90
2024-05-09T07:45:52.775Z,99.90
2024-05-09T07:52:45.979Z,99.90
2024-05-09T07:53:51.953Z,99.90
2024-05-09T07:56:23.045Z,99.90
2024-05-09T07:58:55.414Z,99.90
2024-05-09T08:01:25.655Z,99.90
2024-05-09T08:03:56.418Z,99.90
2024-05-09T08:06:26.817Z,99.90
2024-05-09T08:08:57.844Z,99.90
2024-05-09T08:11:26.313Z,99.90
2024-05-09T08:13:56.062Z,99.90
2024-05-09T08:16:23.346Z,99.90
2024-05-09T08:18:53.253Z,99.90
2024-05-09T08:21:20.371Z,99.90
2024-05-09T08:23:52.610Z,99.90
2024-05-09T08:26:19.741Z,99.90
2024-05-09T08:28:49.490Z,99.90
2024-05-09T08:31:16.699Z,99.90
2024-05-09T08:33:47.361Z,99.90
2024-05-09T08:36:14.892Z,99.90
2024-05-09T08:38:44.529Z,99.90
2024-05-09T08:41:15.380Z,99.90
2024-05-09T08:43:46.957Z,99.90
2024-05-09T08:46:14.425Z,99.90
2024-05-09T08:48:46.508Z,99.90
2024-05-09T08:51:14.265Z,99.90
2024-05-09T08:53:44.078Z,99.90
2024-05-09T08:56:14.867Z,99.90
2024-05-09T08:58:45.210Z,99.90
2024-05-09T09:01:14.265Z,99.90
2024-05-09T09:03:44.962Z,99.90
2024-05-09T09:06:14.500Z,99.90
2024-05-09T09:08:44.378Z,99.90
2024-05-09T09:11:14.205Z,99.90
2024-05-09T09:13:43.959Z,99.90
2024-05-09T09:16:11.192Z,99.90
2024-05-09T09:18:41.155Z,99.90
2024-05-09T09:21:10.859Z,99.90
2024-05-09T09:23:41.931Z,99.90
2024-05-09T09:26:09.039Z,99.90
2024-05-09T09:28:42.265Z,99.90
2024-05-09T09:31:09.388Z,99.90
2024-05-09T09:33:45.066Z,99.90
2024-05-09T09:36:14.239Z,99.90
2024-05-09T09:38:44.211Z,99.90
2024-05-09T09:41:11.795Z,99.90
2024-05-09T09:43:45.548Z,99.90
2024-05-09T09:46:14.641Z,99.90
2024-05-09T09:48:45.615Z,99.90
2024-05-09T09:51:15.172Z,98.80
2024-05-09T09:53:46.685Z,95.60
2024-05-09T09:56:15.766Z,92.90
2024-05-09T09:58:49.252Z,88.00
2024-05-09T10:01:16.510Z,81.30
2024-05-09T10:03:46.732Z,75.20
2024-05-09T10:06:15.188Z,71.60
2024-05-09T10:08:45.302Z,69.20
2024-05-09T10:11:12.488Z,65.70
2024-05-09T10:13:46.730Z,62.90
2024-05-09T10:16:20.160Z,61.00
2024-05-09T10:18:50.053Z,59.20
2024-05-09T10:21:17.882Z,58.00
2024-05-09T10:23:58.620Z,55.40
2024-05-09T10:26:33.728Z,52.50
2024-05-09T10:29:14.738Z,48.20
2024-05-09T10:31:43.031Z,45.00
2024-05-09T10:34:19.914Z,42.20
2024-05-09T10:36:51.340Z,38.40
2024-05-09T10:39:22.862Z,36.60
2024-05-09T10:41:50.131Z,35.40
2024-05-09T10:44:24.547Z,34.20
2024-05-09T10:46:54.523Z,33.60
2024-05-09T10:49:25.129Z,32.70
2024-05-09T10:51:53.176Z,31.80
2024-05-09T10:54:23.135Z,31.20
2024-05-09T10:56:56.408Z,30.60
2024-05-09T10:59:35.511Z,29.80
2024-05-09T11:02:05.053Z,29.10
2024-05-09T11:04:36.488Z,28.30
2024-05-09T11:07:08.607Z,28.20
2024-05-09T11:09:39.776Z,27.70
2024-05-09T11:12:07.847Z,27.60
2024-05-09T11:14:40.289Z,27.80
2024-05-09T11:17:08.526Z,27.10
2024-05-09T11:19:41.368Z,26.60
2024-05-09T11:22:08.670Z,26.50
2024-05-09T11:24:38.486Z,26.40
2024-05-09T11:27:06.505Z,26.50
2024-05-09T11:29:43.217Z,26.70
2024-05-09T11:32:12.090Z,27.00
2024-05-09T11:34:42.273Z,28.00
2024-05-09T11:37:09.943Z,28.10
2024-05-09T11:39:39.850Z,28.60
2024-05-09T11:42:06.952Z,28.90
2024-05-09T11:44:36.625Z,29.00
2024-05-09T11:47:06.474Z,29.30
2024-05-09T11:49:36.179Z,29.70
2024-05-09T11:52:03.472Z,30.00
2024-05-09T11:54:33.142Z,30.80
2024-05-09T11:57:00.260Z,32.30
2024-05-09T11:59:30.197Z,32.80
2024-05-09T12:01:57.439Z,33.40
2024-05-09T12:04:30.064Z,33.70
2024-05-09T12:06:57.321Z,34.50
2024-05-09T12:09:27.161Z,34.70
2024-05-09T12:11:54.236Z,34.90
2024-05-09T12:14:24.064Z,34.90
2024-05-09T12:16:51.336Z,35.00
2024-05-09T12:19:21.195Z,35.30
2024-05-09T12:21:51.452Z,35.30
2024-05-09T12:24:21.129Z,35.10
2024-05-09T12:26:48.255Z,35.00
2024-05-09T12:29:17.881Z,35.20
2024-05-09T12:31:45.016Z,35.70
2024-05-09T12:34:15.996Z,36.10
2024-05-09T12:36:43.223Z,36.20
2024-05-09T12:39:15.518Z,35.90
2024-05-09T12:41:42.578Z,36.10
2024-05-09T12:44:12.189Z,35.80
2024-05-09T12:46:39.351Z,35.60
2024-05-09T12:49:09.695Z,35.80
2024-05-09T12:51:36.865Z,36.50
2024-05-09T12:54:07.006Z,36.60
2024-05-09T12:56:36.642Z,36.00
2024-05-09T12:59:06.398Z,35.90
2024-05-09T13:01:33.594Z,35.00
2024-05-09T13:04:03.624Z,34.40
2024-05-09T13:06:31.402Z,34.40
2024-05-09T13:09:01.183Z,34.20
2024-05-09T13:11:28.250Z,34.50
2024-05-09T13:14:00.521Z,34.50
2024-05-09T13:16:28.790Z,34.30
2024-05-09T13:18:58.520Z,33.40
2024-05-09T13:21:26.972Z,33.30
2024-05-09T13:23:59.255Z,33.90
2024-05-09T13:26:27.404Z,34.10
2024-05-09T13:28:57.072Z,33.90
2024-05-09T13:31:26.911Z,33.60
2024-05-09T13:33:56.689Z,33.70
2024-05-09T13:36:23.875Z,34.10
2024-05-09T13:38:53.694Z,34.60
2024-05-09T13:41:20.776Z,35.10
2024-05-09T13:43:50.732Z,35.80
2024-05-09T13:46:17.954Z,36.40
2024-05-09T13:48:50.418Z,36.90
2024-05-09T13:51:17.576Z,37.20
2024-05-09T13:53:47.242Z,37.60
2024-05-09T13:56:14.354Z,38.00
2024-05-09T13:58:44.589Z,38.40
2024-05-09T14:01:11.735Z,38.20
2024-05-09T14:03:41.615Z,38.70
2024-05-09T14:06:13.099Z,38.90
2024-05-09T14:08:43.003Z,38.90
2024-05-09T14:11:10.116Z,39.00
2024-05-09T14:13:39.877Z,38.70
2024-05-09T14:16:07.892Z,38.60
2024-05-09T14:18:37.942Z,39.10
2024-05-09T14:21:05.322Z,39.30
2024-05-09T14:23:37.623Z,39.70
2024-05-09T14:26:05.042Z,39.70
2024-05-09T14:28:34.750Z,39.10
2024-05-09T14:31:01.838Z,38.40
2024-05-09T14:33:31.668Z,37.80
2024-05-09T14:35:59.024Z,37.20
2024-05-09T14:38:30.275Z,36.60
2024-05-09T14:40:59.983Z,36.50
2024-05-09T14:43:29.772Z,36.50
2024-05-09T14:45:57.006Z,36.70
2024-05-09T14:48:26.921Z,37.00
2024-05-09T14:50:54.520Z,37.40
2024-05-09T14:53:24.199Z,37.90
2024-05-09T14:55:51.288Z,38.10
2024-05-09T14:58:23.841Z,38.40
2024-05-09T15:00:51.986Z,38.20
2024-05-09T15:03:22.944Z,38.00
2024-05-09T15:05:51.151Z,37.80
2024-05-09T15:08:22.057Z,37.30
2024-05-09T15:10:52.156Z,37.50
2024-05-09T15:13:22.503Z,37.60
2024-05-09T15:15:53.068Z,37.40
2024-05-09T15:18:20.582Z,37.30
2024-05-09T15:20:50.467Z,37.10
2024-05-09T15:23:17.520Z,36.90
2024-05-09T15:25:47.333Z,37.20
2024-05-09T15:28:14.635Z,37.10
2024-05-09T15:30:47.998Z,36.90
2024-05-09T15:33:15.736Z,36.30
2024-05-09T15:35:46.599Z,36.40
2024-05-09T15:38:14.572Z,36.90
2024-05-09T15:40:44.221Z,38.20
2024-05-09T15:43:12.065Z,38.50
2024-05-09T15:45:42.320Z,38.80
2024-05-09T15:48:12.610Z,39.10
2024-05-09T15:50:43.029Z,39.20
2024-05-09T15:53:11.968Z,39.40
2024-05-09T15:55:42.686Z,39.80
2024-05-09T15:58:12.268Z,40.00
2024-05-09T16:00:44.413Z,40.20
2024-05-09T16:03:15.801Z,40.20
2024-05-09T16:05:47.772Z,40.60
2024-05-09T16:08:15.894Z,40.00
2024-05-09T16:10:47.080Z,40.10
2024-05-09T16:13:15.456Z,40.20
2024-05-09T16:15:46.517Z,40.00
2024-05-09T16:18:16.578Z,39.90
2024-05-09T16:20:49.203Z,40.30
2024-05-09T16:23:17.310Z,40.50
2024-05-09T16:25:47.804Z,40.60
2024-05-09T16:28:15.512Z,40.60
2024-05-09T16:30:45.345Z,40.80
2024-05-09T16:33:12.730Z,41.10
2024-05-09T16:35:45.236Z,41.10
2024-05-09T16:38:13.354Z,41.10
2024-05-09T16:40:43.049Z,41.10
2024-05-09T16:43:11.234Z,41.20
2024-05-09T16:45:43.952Z,41.30
2024-05-09T16:48:12.338Z,41.50
2024-05-09T16:50:44.862Z,42.50
2024-05-09T16:53:14.769Z,42.10
2024-05-09T16:55:41.814Z,42.50
2024-05-09T16:58:12.370Z,42.80
2024-05-09T17:00:42.801Z,42.90
2024-05-09T17:03:16.218Z,43.20
2024-05-09T17:05:47.333Z,43.60
2024-05-09T17:08:18.790Z,44.00
2024-05-09T17:10:46.399Z,44.20
2024-05-09T17:13:16.563Z,44.40
2024-05-09T17:15:46.324Z,44.50
2024-05-09T17:18:16.528Z,44.70
2024-05-09T17:20:48.683Z,44.80
2024-05-09T17:23:18.376Z,45.00
2024-05-09T17:25:45.407Z,45.20
2024-05-09T17:28:15.268Z,45.30
2024-05-09T17:30:45.496Z,45.60
2024-05-09T17:33:13.398Z,46.10
2024-05-09T17:35:45.794Z,46.60
2024-05-09T17:38:15.737Z,47.10
2024-05-09T17:40:45.502Z,47.80
2024-05-09T17:43:12.819Z,48.50
2024-05-09T17:45:42.878Z,48.90
2024-05-09T17:48:11.688Z,49.40
2024-05-09T17:50:42.505Z,50.00
2024-05-09T17:53:10.237Z,50.50
2024-05-09T17:55:42.768Z,50.80
2024-05-09T17:58:11.789Z,51.10
2024-05-09T18:00:42.674Z,51.50
2024-05-09T18:03:12.104Z,51.70
2024-05-09T18:05:44.518Z,52.00
2024-05-09T18:08:12.752Z,52.40
2024-05-09T18:10:45.487Z,53.00
2024-05-09T18:13:13.548Z,53.50
2024-05-09T18:15:45.071Z,53.80
2024-05-09T18:18:13.116Z,54.10
2024-05-09T18:20:45.651Z,54.40
2024-05-09T18:23:16.027Z,54.60
2024-05-09T18:25:54.385Z,55.00
2024-05-09T18:28:21.754Z,55.10
2024-05-09T18:30:51.565Z,55.30
2024-05-09T18:33:19.026Z,55.70
2024-05-09T18:35:48.975Z,56.10
2024-05-09T18:38:17.575Z,56.40
2024-05-09T18:40:50.128Z,56.80
2024-05-09T18:43:17.672Z,57.10
2024-05-09T18:45:48.312Z,57.30
2024-05-09T18:48:15.846Z,57.40
2024-05-09T18:50:46.407Z,58.00
2024-05-09T18:53:14.582Z,58.50
2024-05-09T18:55:44.547Z,58.90
2024-05-09T18:58:17.009Z,59.30
2024-05-09T19:00:49.804Z,59.80
2024-05-09T19:03:18.585Z,60.60
2024-05-09T19:05:48.742Z,61.20
2024-05-09T19:08:16.048Z,61.60
2024-05-09T19:10:46.294Z,62.50
2024-05-09T19:13:16.583Z,63.20
2024-05-09T19:15:46.598Z,64.00
2024-05-09T19:18:14.826Z,64.70
2024-05-09T19:20:45.133Z,65.60
2024-05-09T19:23:12.406Z,66.30
2024-05-09T19:25:42.326Z,67.10
2024-05-09T19:28:09.546Z,67.80
2024-05-09T19:30:42.980Z,68.80
2024-05-09T19:33:12.343Z,69.70
2024-05-09T19:35:43.813Z,70.60
2024-05-09T19:38:11.284Z,71.70
2024-05-09T19:40:41.086Z,72.60
2024-05-09T19:43:08.486Z,73.30
2024-05-09T19:45:41.005Z,74.10
2024-05-09T19:48:08.981Z,74.80
2024-05-09T19:50:43.174Z,75.60
2024-05-09T19:53:12.436Z,76.30
2024-05-09T19:55:42.459Z,76.70
2024-05-09T19:58:09.923Z,77.30
2024-05-09T20:00:44.009Z,77.70
2024-05-09T20:03:14.097Z,78.20
2024-05-09T20:05:45.279Z,78.60
2024-05-09T20:08:13.071Z,79.10
2024-05-09T20:10:42.933Z,79.50
2024-05-09T20:13:10.213Z,80.10
2024-05-09T20:15:42.619Z,80.50
2024-05-09T20:18:09.932Z,80.80
2024-05-09T20:20:42.696Z,81.00
2024-05-09T20:23:12.732Z,81.50
2024-05-09T20:25:42.586Z,82.70
2024-05-09T20:28:10.351Z,84.20
2024-05-09T20:30:43.124Z,84.80
2024-05-09T20:33:10.690Z,85.50
2024-05-09T20:35:40.466Z,85.50
2024-05-09T20:38:07.712Z,85.40
2024-05-09T20:40:39.279Z,85.40
2024-05-09T20:43:08.420Z,85.90
2024-05-09T20:45:38.769Z,86.30
2024-05-09T20:48:09.962Z,87.00
2024-05-09T20:50:42.071Z,88.00
2024-05-09T20:53:11.288Z,89.00
2024-05-09T20:55:41.407Z,88.30
2024-05-09T20:58:09.105Z,88.40
2024-05-09T21:00:42.767Z,88.70
2024-05-09T21:03:16.492Z,89.00
2024-05-09T21:05:47.821Z,89.30
2024-05-09T21:08:15.515Z,89.70
2024-05-09T21:10:45.339Z,90.00
2024-05-09T21:13:12.618Z,90.30
2024-05-09T21:15:42.605Z,90.50
2024-05-09T21:18:09.860Z,90.70
2024-05-09T21:20:42.157Z,91.00
2024-05-09T21:23:09.236Z,91.40
2024-05-09T21:25:38.959Z,91.80
2024-05-09T21:28:06.461Z,92.30
2024-05-09T21:30:41.631Z,92.70
2024-05-09T21:33:12.104Z,93.10
2024-05-09T21:35:46.436Z,93.60
2024-05-09T21:38:14.690Z,94.00
2024-05-09T21:40:45.503Z,94.50
2024-05-09T21:43:12.924Z,95.20
2024-05-09T21:45:42.833Z,95.30
2024-05-09T21:48:12.537Z,95.60
2024-05-09T21:50:45.095Z,95.90
2024-05-09T21:53:13.290Z,96.20
2024-05-09T21:55:44.062Z,96.60
2024-05-09T21:58:12.139Z,96.90
2024-05-09T22:00:42.871Z,97.30
2024-05-09T22:03:11.719Z,97.60
2024-05-09T22:05:44.266Z,97.90
2024-05-09T22:08:14.356Z,98.60
2024-05-09T22:10:44.522Z,99.50
2024-05-09T22:13:11.849Z,99.90
2024-05-09T22:15:42.353Z,99.90
2024-05-09T22:18:10.759Z,99.90
2024-05-09T22:20:45.223Z,99.90
2024-05-09T22:23:16.096Z,99.90
2024-05-09T22:25:45.816Z,99.90
2024-05-09T22:28:15.405Z,99.90
2024-05-09T22:30:46.094Z,99.90
2024-05-09T22:33:14.939Z,99.90
2024-05-09T22:35:45.202Z,99.90
2024-05-09T22:38:12.446Z,99.90
2024-05-09T22:40:48.455Z,99.90
2024-05-09T22:43:19.360Z,99.90
2024-05-09T22:45:49.790Z,99.90
2024-05-09T22:48:17.592Z,99.90
2024-05-09T22:50:47.728Z,99.90
2024-05-09T22:53:14.986Z,99.90
2024-05-09T22:55:47.380Z,99.90
2024-05-09T22:58:14.493Z,99.90
2024-05-09T23:00:44.381Z,99.90
2024-05-09T23:03:11.703Z,99.90
2024-05-09T23:05:41.436Z,99.90
2024-05-09T23:08:08.728Z,99.90
2024-05-09T23:10:38.696Z,99.90
2024-05-09T23:13:08.785Z,99.90
2024-05-09T23:15:39.555Z,99.90
2024-05-09T23:18:07.173Z,99.90
2024-05-09T23:20:39.391Z,99.90
2024-05-09T23:23:07.461Z,99.90
2024-05-09T23:25:37.379Z,99.90
2024-05-09T23:28:05.462Z,99.90
2024-05-09T23:30:40.273Z,99.90
2024-05-09T23:33:11.326Z,99.90
2024-05-09T23:35:41.327Z,99.90
2024-05-09T23:38:08.455Z,99.90
2024-05-09T23:40:40.676Z,99.90
2024-05-09T23:43:09.467Z,99.90
2024-05-09T23:45:42.409Z,99.90
2024-05-09T23:48:10.162Z,99.90
2024-05-09T23:50:40.824Z,99.90
2024-05-09T23:53:09.638Z,99.90
2024-05-09T23:55:40.098Z,99.90
2024-05-09T23:58:07.623Z,99.90
